sensor_id;sensor_type;location;lat;lon;timestamp;P1;durP1;ratioP1;P2;durP2;ratioP2
78889;SDS011;68279;48.964;14.502;2023-08-24T00:00:15;7.93;;;6.38;;
78889;SDS011;68279;48.964;14.502;2023-08-24T00:02:42;8.48;;;6.05;;
78889;SDS011;68279;48.964;14.502;2023-08-24T00:05:08;9.75;;;6.53;;
78889;SDS011;68279;48.964;14.502;2023-08-24T00:07:33;9.40;;;6.50;;
78889;SDS011;68279;48.964;14.502;2023-08-24T00:09:59;7.13;;;5.45;;
78889;SDS011;68279;48.964;14.502;2023-08-24T00:12:25;9.63;;;6.60;;
78889;SDS011;68279;48.964;14.502;2023-08-24T00:14:51;9.18;;;6.50;;
78889;SDS011;68279;48.964;14.502;2023-08-24T00:17:17;10.07;;;6.13;;
78889;SDS011;68279;48.964;14.502;2023-08-24T00:19:42;7.90;;;5.50;;
78889;SDS011;68279;48.964;14.502;2023-08-24T00:22:09;7.85;;;6.15;;
78889;SDS011;68279;48.964;14.502;2023-08-24T00:24:35;8.63;;;5.72;;
78889;SDS011;68279;48.964;14.502;2023-08-24T00:27:00;9.60;;;6.72;;
78889;SDS011;68279;48.964;14.502;2023-08-24T00:29:26;7.32;;;5.78;;
78889;SDS011;68279;48.964;14.502;2023-08-24T00:31:51;8.55;;;6.10;;
78889;SDS011;68279;48.964;14.502;2023-08-24T00:34:17;9.13;;;6.60;;
78889;SDS011;68279;48.964;14.502;2023-08-24T00:36:43;9.50;;;7.00;;
78889;SDS011;68279;48.964;14.502;2023-08-24T00:39:08;9.38;;;6.72;;
78889;SDS011;68279;48.964;14.502;2023-08-24T00:41:34;8.65;;;6.72;;
78889;SDS011;68279;48.964;14.502;2023-08-24T00:44:00;9.32;;;6.82;;
78889;SDS011;68279;48.964;14.502;2023-08-24T00:46:25;8.40;;;5.97;;
78889;SDS011;68279;48.964;14.502;2023-08-24T00:48:53;10.27;;;7.43;;
78889;SDS011;68279;48.964;14.502;2023-08-24T00:51:22;9.43;;;7.18;;
78889;SDS011;68279;48.964;14.502;2023-08-24T00:53:49;9.65;;;7.15;;
78889;SDS011;68279;48.964;14.502;2023-08-24T00:56:16;8.55;;;6.20;;
78889;SDS011;68279;48.964;14.502;2023-08-24T00:58:42;10.48;;;7.03;;
78889;SDS011;68279;48.964;14.502;2023-08-24T01:01:20;11.00;;;7.72;;
78889;SDS011;68279;48.964;14.502;2023-08-24T01:03:47;9.93;;;7.38;;
78889;SDS011;68279;48.964;14.502;2023-08-24T01:06:13;8.45;;;6.78;;
78889;SDS011;68279;48.964;14.502;2023-08-24T01:08:50;8.80;;;6.38;;
78889;SDS011;68279;48.964;14.502;2023-08-24T01:14:08;9.18;;;6.25;;
78889;SDS011;68279;48.964;14.502;2023-08-24T01:16:47;9.68;;;6.13;;
78889;SDS011;68279;48.964;14.502;2023-08-24T01:22:54;9.65;;;7.78;;
78889;SDS011;68279;48.964;14.502;2023-08-24T01:25:15;9.63;;;7.03;;
78889;SDS011;68279;48.964;14.502;2023-08-24T01:27:50;11.52;;;8.10;;
78889;SDS011;68279;48.964;14.502;2023-08-24T01:30:17;11.23;;;7.35;;
78889;SDS011;68279;48.964;14.502;2023-08-24T01:32:44;9.00;;;6.43;;
78889;SDS011;68279;48.964;14.502;2023-08-24T01:35:16;11.35;;;8.20;;
78889;SDS011;68279;48.964;14.502;2023-08-24T01:37:56;11.32;;;7.75;;
78889;SDS011;68279;48.964;14.502;2023-08-24T01:40:36;13.05;;;7.60;;
78889;SDS011;68279;48.964;14.502;2023-08-24T01:43:13;10.95;;;7.05;;
78889;SDS011;68279;48.964;14.502;2023-08-24T01:45:41;9.90;;;6.82;;
78889;SDS011;68279;48.964;14.502;2023-08-24T01:48:09;9.32;;;7.35;;
78889;SDS011;68279;48.964;14.502;2023-08-24T01:50:35;11.80;;;7.57;;
78889;SDS011;68279;48.964;14.502;2023-08-24T01:53:02;12.13;;;7.22;;
78889;SDS011;68279;48.964;14.502;2023-08-24T01:55:28;11.63;;;7.18;;
78889;SDS011;68279;48.964;14.502;2023-08-24T01:57:55;10.50;;;7.63;;
78889;SDS011;68279;48.964;14.502;2023-08-24T02:00:22;11.48;;;8.00;;
78889;SDS011;68279;48.964;14.502;2023-08-24T02:02:48;12.07;;;7.32;;
78889;SDS011;68279;48.964;14.502;2023-08-24T02:05:14;11.05;;;7.53;;
78889;SDS011;68279;48.964;14.502;2023-08-24T02:07:39;11.75;;;7.88;;
78889;SDS011;68279;48.964;14.502;2023-08-24T02:10:06;12.65;;;8.07;;
78889;SDS011;68279;48.964;14.502;2023-08-24T02:12:32;10.18;;;7.45;;
78889;SDS011;68279;48.964;14.502;2023-08-24T02:14:58;11.15;;;7.65;;
78889;SDS011;68279;48.964;14.502;2023-08-24T02:17:23;10.73;;;7.35;;
78889;SDS011;68279;48.964;14.502;2023-08-24T02:19:50;9.57;;;7.72;;
78889;SDS011;68279;48.964;14.502;2023-08-24T02:22:18;12.20;;;8.38;;
78889;SDS011;68279;48.964;14.502;2023-08-24T02:24:45;10.82;;;7.53;;
78889;SDS011;68279;48.964;14.502;2023-08-24T02:27:11;10.13;;;7.65;;
78889;SDS011;68279;48.964;14.502;2023-08-24T02:29:37;12.00;;;7.45;;
78889;SDS011;68279;48.964;14.502;2023-08-24T02:32:04;13.20;;;8.90;;
78889;SDS011;68279;48.964;14.502;2023-08-24T02:34:30;11.00;;;8.25;;
78889;SDS011;68279;48.964;14.502;2023-08-24T02:36:56;11.45;;;7.13;;
78889;SDS011;68279;48.964;14.502;2023-08-24T02:39:22;13.68;;;8.90;;
78889;SDS011;68279;48.964;14.502;2023-08-24T02:41:47;13.02;;;9.13;;
78889;SDS011;68279;48.964;14.502;2023-08-24T02:44:13;14.27;;;8.20;;
78889;SDS011;68279;48.964;14.502;2023-08-24T02:46:47;12.07;;;7.32;;
78889;SDS011;68279;48.964;14.502;2023-08-24T02:49:13;10.40;;;7.65;;
78889;SDS011;68279;48.964;14.502;2023-08-24T02:51:41;10.70;;;7.18;;
78889;SDS011;68279;48.964;14.502;2023-08-24T02:54:06;13.07;;;8.82;;
78889;SDS011;68279;48.964;14.502;2023-08-24T02:56:33;15.20;;;8.68;;
78889;SDS011;68279;48.964;14.502;2023-08-24T02:59:02;15.45;;;9.13;;
78889;SDS011;68279;48.964;14.502;2023-08-24T03:01:27;10.95;;;7.97;;
78889;SDS011;68279;48.964;14.502;2023-08-24T03:03:53;12.57;;;7.78;;
78889;SDS011;68279;48.964;14.502;2023-08-24T03:06:19;13.77;;;9.05;;
78889;SDS011;68279;48.964;14.502;2023-08-24T03:08:44;11.32;;;7.32;;
78889;SDS011;68279;48.964;14.502;2023-08-24T03:11:10;11.80;;;7.82;;
78889;SDS011;68279;48.964;14.502;2023-08-24T03:13:36;11.18;;;7.70;;
78889;SDS011;68279;48.964;14.502;2023-08-24T03:16:05;12.15;;;8.75;;
78889;SDS011;68279;48.964;14.502;2023-08-24T03:18:32;12.60;;;8.25;;
78889;SDS011;68279;48.964;14.502;2023-08-24T03:20:58;12.00;;;8.40;;
78889;SDS011;68279;48.964;14.502;2023-08-24T03:23:24;10.75;;;7.00;;
78889;SDS011;68279;48.964;14.502;2023-08-24T03:25:49;10.80;;;7.10;;
78889;SDS011;68279;48.964;14.502;2023-08-24T03:28:15;11.57;;;7.50;;
78889;SDS011;68279;48.964;14.502;2023-08-24T03:30:45;9.60;;;6.97;;
78889;SDS011;68279;48.964;14.502;2023-08-24T03:33:14;10.15;;;7.60;;
78889;SDS011;68279;48.964;14.502;2023-08-24T03:35:40;12.55;;;8.55;;
78889;SDS011;68279;48.964;14.502;2023-08-24T03:38:05;16.33;;;7.97;;
78889;SDS011;68279;48.964;14.502;2023-08-24T03:40:31;12.57;;;8.57;;
78889;SDS011;68279;48.964;14.502;2023-08-24T03:42:57;16.63;;;8.63;;
78889;SDS011;68279;48.964;14.502;2023-08-24T03:45:22;12.32;;;7.85;;
78889;SDS011;68279;48.964;14.502;2023-08-24T03:47:49;14.90;;;9.02;;
78889;SDS011;68279;48.964;14.502;2023-08-24T03:50:14;10.95;;;7.68;;
78889;SDS011;68279;48.964;14.502;2023-08-24T03:52:40;11.82;;;7.45;;
78889;SDS011;68279;48.964;14.502;2023-08-24T03:55:06;65.22;;;11.52;;
78889;SDS011;68279;48.964;14.502;2023-08-24T03:57:32;9.98;;;6.60;;
78889;SDS011;68279;48.964;14.502;2023-08-24T03:59:58;15.77;;;6.47;;
78889;SDS011;68279;48.964;14.502;2023-08-24T04:02:24;32.50;;;8.90;;
78889;SDS011;68279;48.964;14.502;2023-08-24T04:04:52;58.80;;;10.70;;
78889;SDS011;68279;48.964;14.502;2023-08-24T04:07:18;34.38;;;9.65;;
78889;SDS011;68279;48.964;14.502;2023-08-24T04:09:44;13.07;;;7.45;;
78889;SDS011;68279;48.964;14.502;2023-08-24T04:12:10;13.18;;;7.82;;
78889;SDS011;68279;48.964;14.502;2023-08-24T04:14:36;12.00;;;7.38;;
78889;SDS011;68279;48.964;14.502;2023-08-24T04:17:02;11.98;;;8.30;;
78889;SDS011;68279;48.964;14.502;2023-08-24T04:19:28;13.82;;;8.57;;
78889;SDS011;68279;48.964;14.502;2023-08-24T04:21:54;11.50;;;7.75;;
78889;SDS011;68279;48.964;14.502;2023-08-24T04:24:19;12.20;;;7.82;;
78889;SDS011;68279;48.964;14.502;2023-08-24T04:26:45;11.60;;;7.93;;
78889;SDS011;68279;48.964;14.502;2023-08-24T04:29:11;12.30;;;7.18;;
78889;SDS011;68279;48.964;14.502;2023-08-24T04:31:38;11.50;;;7.70;;
78889;SDS011;68279;48.964;14.502;2023-08-24T04:34:06;12.52;;;8.07;;
78889;SDS011;68279;48.964;14.502;2023-08-24T04:36:32;10.50;;;7.47;;
78889;SDS011;68279;48.964;14.502;2023-08-24T04:38:58;11.98;;;7.85;;
78889;SDS011;68279;48.964;14.502;2023-08-24T04:41:24;11.57;;;7.80;;
78889;SDS011;68279;48.964;14.502;2023-08-24T04:43:49;12.02;;;7.93;;
78889;SDS011;68279;48.964;14.502;2023-08-24T04:46:17;10.32;;;7.18;;
78889;SDS011;68279;48.964;14.502;2023-08-24T04:48:42;12.73;;;7.53;;
78889;SDS011;68279;48.964;14.502;2023-08-24T04:51:08;11.23;;;7.18;;
78889;SDS011;68279;48.964;14.502;2023-08-24T04:53:34;15.32;;;8.30;;
78889;SDS011;68279;48.964;14.502;2023-08-24T04:55:59;9.68;;;7.15;;
78889;SDS011;68279;48.964;14.502;2023-08-24T04:58:25;15.32;;;9.25;;
78889;SDS011;68279;48.964;14.502;2023-08-24T05:00:51;18.65;;;10.82;;
78889;SDS011;68279;48.964;14.502;2023-08-24T05:03:17;16.48;;;9.85;;
78889;SDS011;68279;48.964;14.502;2023-08-24T05:05:44;15.23;;;9.90;;
78889;SDS011;68279;48.964;14.502;2023-08-24T05:08:12;14.18;;;9.38;;
78889;SDS011;68279;48.964;14.502;2023-08-24T05:10:37;15.15;;;10.73;;
78889;SDS011;68279;48.964;14.502;2023-08-24T05:13:03;14.05;;;10.15;;
78889;SDS011;68279;48.964;14.502;2023-08-24T05:15:29;19.13;;;11.20;;
78889;SDS011;68279;48.964;14.502;2023-08-24T05:17:55;14.75;;;8.73;;
78889;SDS011;68279;48.964;14.502;2023-08-24T05:20:25;18.30;;;10.07;;
78889;SDS011;68279;48.964;14.502;2023-08-24T05:22:52;17.48;;;10.50;;
78889;SDS011;68279;48.964;14.502;2023-08-24T05:25:21;15.15;;;10.40;;
78889;SDS011;68279;48.964;14.502;2023-08-24T05:27:51;15.75;;;10.48;;
78889;SDS011;68279;48.964;14.502;2023-08-24T05:30:18;13.98;;;9.50;;
78889;SDS011;68279;48.964;14.502;2023-08-24T05:32:44;15.95;;;10.05;;
78889;SDS011;68279;48.964;14.502;2023-08-24T05:35:10;12.85;;;9.02;;
78889;SDS011;68279;48.964;14.502;2023-08-24T05:37:38;13.82;;;9.63;;
78889;SDS011;68279;48.964;14.502;2023-08-24T05:40:07;12.60;;;8.65;;
78889;SDS011;68279;48.964;14.502;2023-08-24T05:42:33;12.25;;;9.25;;
78889;SDS011;68279;48.964;14.502;2023-08-24T05:45:05;11.80;;;8.30;;
78889;SDS011;68279;48.964;14.502;2023-08-24T05:47:31;13.63;;;8.48;;
78889;SDS011;68279;48.964;14.502;2023-08-24T05:49:59;11.05;;;8.85;;
78889;SDS011;68279;48.964;14.502;2023-08-24T05:52:25;10.35;;;7.00;;
78889;SDS011;68279;48.964;14.502;2023-08-24T05:54:51;11.02;;;6.65;;
78889;SDS011;68279;48.964;14.502;2023-08-24T05:57:17;9.93;;;7.63;;
78889;SDS011;68279;48.964;14.502;2023-08-24T05:59:47;10.98;;;8.32;;
78889;SDS011;68279;48.964;14.502;2023-08-24T06:02:13;12.27;;;7.70;;
78889;SDS011;68279;48.964;14.502;2023-08-24T06:04:39;8.60;;;6.15;;
78889;SDS011;68279;48.964;14.502;2023-08-24T06:07:06;8.75;;;6.90;;
78889;SDS011;68279;48.964;14.502;2023-08-24T06:09:33;9.18;;;6.65;;
78889;SDS011;68279;48.964;14.502;2023-08-24T06:11:59;9.32;;;7.43;;
78889;SDS011;68279;48.964;14.502;2023-08-24T06:14:25;9.23;;;6.78;;
78889;SDS011;68279;48.964;14.502;2023-08-24T06:16:52;8.25;;;6.07;;
78889;SDS011;68279;48.964;14.502;2023-08-24T06:19:30;8.68;;;6.45;;
78889;SDS011;68279;48.964;14.502;2023-08-24T06:21:56;8.55;;;6.88;;
78889;SDS011;68279;48.964;14.502;2023-08-24T06:24:23;8.63;;;6.28;;
78889;SDS011;68279;48.964;14.502;2023-08-24T06:26:50;7.72;;;6.07;;
78889;SDS011;68279;48.964;14.502;2023-08-24T06:29:17;9.20;;;7.55;;
78889;SDS011;68279;48.964;14.502;2023-08-24T06:31:45;10.75;;;6.22;;
78889;SDS011;68279;48.964;14.502;2023-08-24T06:34:13;9.93;;;6.80;;
78889;SDS011;68279;48.964;14.502;2023-08-24T06:36:41;7.47;;;6.40;;
78889;SDS011;68279;48.964;14.502;2023-08-24T06:39:08;9.43;;;6.88;;
78889;SDS011;68279;48.964;14.502;2023-08-24T06:41:39;8.20;;;6.70;;
78889;SDS011;68279;48.964;14.502;2023-08-24T06:46:39;10.13;;;6.45;;
78889;SDS011;68279;48.964;14.502;2023-08-24T06:49:11;8.77;;;6.05;;
78889;SDS011;68279;48.964;14.502;2023-08-24T06:51:36;8.52;;;7.53;;
78889;SDS011;68279;48.964;14.502;2023-08-24T06:54:03;9.60;;;7.03;;
78889;SDS011;68279;48.964;14.502;2023-08-24T06:56:31;10.93;;;7.65;;
78889;SDS011;68279;48.964;14.502;2023-08-24T06:59:05;8.23;;;6.95;;
78889;SDS011;68279;48.964;14.502;2023-08-24T07:01:32;9.85;;;7.75;;
78889;SDS011;68279;48.964;14.502;2023-08-24T07:04:00;7.65;;;6.32;;
78889;SDS011;68279;48.964;14.502;2023-08-24T07:06:35;8.55;;;6.65;;
78889;SDS011;68279;48.964;14.502;2023-08-24T07:09:36;11.60;;;6.57;;
78889;SDS011;68279;48.964;14.502;2023-08-24T07:11:58;6.60;;;5.75;;
78889;SDS011;68279;48.964;14.502;2023-08-24T07:14:25;8.13;;;6.43;;
78889;SDS011;68279;48.964;14.502;2023-08-24T07:19:33;8.77;;;6.45;;
78889;SDS011;68279;48.964;14.502;2023-08-24T07:21:59;7.07;;;5.90;;
78889;SDS011;68279;48.964;14.502;2023-08-24T07:24:30;8.43;;;6.15;;
78889;SDS011;68279;48.964;14.502;2023-08-24T07:26:59;11.00;;;6.55;;
78889;SDS011;68279;48.964;14.502;2023-08-24T07:29:27;7.72;;;6.05;;
78889;SDS011;68279;48.964;14.502;2023-08-24T07:31:54;8.23;;;6.63;;
78889;SDS011;68279;48.964;14.502;2023-08-24T07:34:20;7.28;;;6.13;;
78889;SDS011;68279;48.964;14.502;2023-08-24T07:36:48;8.10;;;6.40;;
78889;SDS011;68279;48.964;14.502;2023-08-24T07:39:14;9.77;;;6.05;;
78889;SDS011;68279;48.964;14.502;2023-08-24T07:41:40;6.43;;;5.82;;
78889;SDS011;68279;48.964;14.502;2023-08-24T07:44:11;8.90;;;6.50;;
78889;SDS011;68279;48.964;14.502;2023-08-24T07:46:41;7.75;;;6.10;;
78889;SDS011;68279;48.964;14.502;2023-08-24T07:49:09;8.73;;;5.80;;
78889;SDS011;68279;48.964;14.502;2023-08-24T07:51:39;8.77;;;6.10;;
78889;SDS011;68279;48.964;14.502;2023-08-24T07:54:07;9.15;;;6.18;;
78889;SDS011;68279;48.964;14.502;2023-08-24T07:56:42;10.30;;;6.53;;
78889;SDS011;68279;48.964;14.502;2023-08-24T07:59:26;8.93;;;6.78;;
78889;SDS011;68279;48.964;14.502;2023-08-24T08:01:53;10.85;;;6.15;;
78889;SDS011;68279;48.964;14.502;2023-08-24T08:04:21;7.38;;;6.50;;
78889;SDS011;68279;48.964;14.502;2023-08-24T08:06:49;9.57;;;6.20;;
78889;SDS011;68279;48.964;14.502;2023-08-24T08:09:16;9.38;;;6.97;;
78889;SDS011;68279;48.964;14.502;2023-08-24T08:11:42;6.90;;;5.95;;
78889;SDS011;68279;48.964;14.502;2023-08-24T08:14:10;9.00;;;6.55;;
78889;SDS011;68279;48.964;14.502;2023-08-24T08:16:39;7.93;;;6.40;;
78889;SDS011;68279;48.964;14.502;2023-08-24T08:19:10;8.80;;;6.00;;
78889;SDS011;68279;48.964;14.502;2023-08-24T08:21:53;7.45;;;6.53;;
78889;SDS011;68279;48.964;14.502;2023-08-24T08:26:50;8.05;;;6.00;;
78889;SDS011;68279;48.964;14.502;2023-08-24T08:29:16;7.95;;;5.97;;
78889;SDS011;68279;48.964;14.502;2023-08-24T08:31:42;8.55;;;6.38;;
78889;SDS011;68279;48.964;14.502;2023-08-24T08:34:13;7.32;;;6.10;;
78889;SDS011;68279;48.964;14.502;2023-08-24T08:36:44;7.22;;;5.93;;
78889;SDS011;68279;48.964;14.502;2023-08-24T08:39:17;8.00;;;6.13;;
78889;SDS011;68279;48.964;14.502;2023-08-24T08:41:44;9.27;;;5.60;;
78889;SDS011;68279;48.964;14.502;2023-08-24T08:44:13;7.20;;;6.50;;
78889;SDS011;68279;48.964;14.502;2023-08-24T08:46:42;8.63;;;6.40;;
78889;SDS011;68279;48.964;14.502;2023-08-24T08:49:09;8.93;;;6.05;;
78889;SDS011;68279;48.964;14.502;2023-08-24T08:51:38;7.15;;;6.25;;
78889;SDS011;68279;48.964;14.502;2023-08-24T08:54:05;8.38;;;6.03;;
78889;SDS011;68279;48.964;14.502;2023-08-24T08:56:31;8.32;;;6.05;;
78889;SDS011;68279;48.964;14.502;2023-08-24T08:58:59;7.30;;;5.05;;
78889;SDS011;68279;48.964;14.502;2023-08-24T09:01:32;7.13;;;6.25;;
78889;SDS011;68279;48.964;14.502;2023-08-24T09:06:32;7.25;;;5.05;;
78889;SDS011;68279;48.964;14.502;2023-08-24T09:09:01;7.75;;;5.63;;
78889;SDS011;68279;48.964;14.502;2023-08-24T09:11:26;8.50;;;5.15;;
78889;SDS011;68279;48.964;14.502;2023-08-24T09:13:52;8.13;;;5.82;;
78889;SDS011;68279;48.964;14.502;2023-08-24T09:16:19;7.25;;;4.60;;
78889;SDS011;68279;48.964;14.502;2023-08-24T09:18:46;5.32;;;4.45;;
78889;SDS011;68279;48.964;14.502;2023-08-24T09:21:18;5.68;;;4.15;;
78889;SDS011;68279;48.964;14.502;2023-08-24T09:23:45;7.03;;;3.85;;
78889;SDS011;68279;48.964;14.502;2023-08-24T09:26:20;6.97;;;5.55;;
78889;SDS011;68279;48.964;14.502;2023-08-24T09:31:55;6.45;;;5.15;;
78889;SDS011;68279;48.964;14.502;2023-08-24T09:34:24;7.78;;;5.70;;
78889;SDS011;68279;48.964;14.502;2023-08-24T09:36:51;7.03;;;5.40;;
78889;SDS011;68279;48.964;14.502;2023-08-24T09:39:18;6.40;;;5.13;;
78889;SDS011;68279;48.964;14.502;2023-08-24T09:41:45;5.20;;;4.07;;
78889;SDS011;68279;48.964;14.502;2023-08-24T09:44:17;8.75;;;5.18;;
78889;SDS011;68279;48.964;14.502;2023-08-24T09:46:43;5.25;;;4.57;;
78889;SDS011;68279;48.964;14.502;2023-08-24T09:49:10;5.97;;;4.93;;
78889;SDS011;68279;48.964;14.502;2023-08-24T09:51:39;5.30;;;4.55;;
78889;SDS011;68279;48.964;14.502;2023-08-24T09:54:06;4.72;;;3.80;;
78889;SDS011;68279;48.964;14.502;2023-08-24T09:56:35;5.40;;;3.85;;
78889;SDS011;68279;48.964;14.502;2023-08-24T09:59:11;10.57;;;4.03;;
78889;SDS011;68279;48.964;14.502;2023-08-24T10:01:42;6.47;;;4.00;;
78889;SDS011;68279;48.964;14.502;2023-08-24T10:04:17;5.97;;;4.45;;
78889;SDS011;68279;48.964;14.502;2023-08-24T10:06:46;4.80;;;4.13;;
78889;SDS011;68279;48.964;14.502;2023-08-24T10:09:24;6.80;;;4.70;;
78889;SDS011;68279;48.964;14.502;2023-08-24T10:12:00;4.93;;;4.25;;
78889;SDS011;68279;48.964;14.502;2023-08-24T10:14:32;5.40;;;3.83;;
78889;SDS011;68279;48.964;14.502;2023-08-24T10:17:07;6.35;;;4.18;;
78889;SDS011;68279;48.964;14.502;2023-08-24T10:19:36;6.40;;;3.90;;
78889;SDS011;68279;48.964;14.502;2023-08-24T10:22:05;5.53;;;3.83;;
78889;SDS011;68279;48.964;14.502;2023-08-24T10:24:32;5.20;;;4.70;;
78889;SDS011;68279;48.964;14.502;2023-08-24T10:27:02;5.28;;;4.78;;
78889;SDS011;68279;48.964;14.502;2023-08-24T10:29:34;6.40;;;4.70;;
78889;SDS011;68279;48.964;14.502;2023-08-24T10:32:00;5.03;;;4.07;;
78889;SDS011;68279;48.964;14.502;2023-08-24T10:34:30;6.22;;;4.13;;
78889;SDS011;68279;48.964;14.502;2023-08-24T10:39:45;5.18;;;4.43;;
78889;SDS011;68279;48.964;14.502;2023-08-24T10:42:17;4.97;;;3.90;;
78889;SDS011;68279;48.964;14.502;2023-08-24T10:44:47;5.53;;;4.07;;
78889;SDS011;68279;48.964;14.502;2023-08-24T10:47:19;7.05;;;4.07;;
78889;SDS011;68279;48.964;14.502;2023-08-24T10:50:06;4.72;;;3.67;;
78889;SDS011;68279;48.964;14.502;2023-08-24T10:52:38;4.00;;;3.53;;
78889;SDS011;68279;48.964;14.502;2023-08-24T10:55:26;4.50;;;3.38;;
78889;SDS011;68279;48.964;14.502;2023-08-24T10:57:56;5.88;;;4.15;;
78889;SDS011;68279;48.964;14.502;2023-08-24T11:00:38;7.57;;;3.72;;
78889;SDS011;68279;48.964;14.502;2023-08-24T11:03:24;4.70;;;3.50;;
78889;SDS011;68279;48.964;14.502;2023-08-24T11:06:16;5.32;;;3.40;;
78889;SDS011;68279;48.964;14.502;2023-08-24T11:08:47;3.70;;;3.15;;
78889;SDS011;68279;48.964;14.502;2023-08-24T11:11:20;5.78;;;3.75;;
78889;SDS011;68279;48.964;14.502;2023-08-24T11:17:01;4.10;;;3.13;;
78889;SDS011;68279;48.964;14.502;2023-08-24T11:19:49;4.57;;;3.67;;
78889;SDS011;68279;48.964;14.502;2023-08-24T11:22:18;6.35;;;3.55;;
78889;SDS011;68279;48.964;14.502;2023-08-24T11:24:45;6.43;;;3.83;;
78889;SDS011;68279;48.964;14.502;2023-08-24T11:27:10;4.28;;;3.28;;
78889;SDS011;68279;48.964;14.502;2023-08-24T11:29:39;4.20;;;3.28;;
78889;SDS011;68279;48.964;14.502;2023-08-24T11:32:07;3.65;;;3.15;;
78889;SDS011;68279;48.964;14.502;2023-08-24T11:34:35;4.53;;;3.30;;
78889;SDS011;68279;48.964;14.502;2023-08-24T11:37:02;5.15;;;3.65;;
78889;SDS011;68279;48.964;14.502;2023-08-24T11:39:30;4.47;;;3.08;;
78889;SDS011;68279;48.964;14.502;2023-08-24T11:42:06;3.58;;;3.25;;
78889;SDS011;68279;48.964;14.502;2023-08-24T11:44:48;5.45;;;3.20;;
78889;SDS011;68279;48.964;14.502;2023-08-24T11:47:14;4.93;;;2.85;;
78889;SDS011;68279;48.964;14.502;2023-08-24T11:49:42;4.57;;;2.85;;
78889;SDS011;68279;48.964;14.502;2023-08-24T11:52:08;3.70;;;2.65;;
78889;SDS011;68279;48.964;14.502;2023-08-24T11:54:38;4.50;;;2.83;;
78889;SDS011;68279;48.964;14.502;2023-08-24T11:57:14;3.67;;;2.90;;
78889;SDS011;68279;48.964;14.502;2023-08-24T11:59:39;4.80;;;3.25;;
78889;SDS011;68279;48.964;14.502;2023-08-24T12:02:05;4.35;;;3.20;;
78889;SDS011;68279;48.964;14.502;2023-08-24T12:04:38;3.40;;;3.00;;
78889;SDS011;68279;48.964;14.502;2023-08-24T12:07:11;6.50;;;2.67;;
78889;SDS011;68279;48.964;14.502;2023-08-24T12:12:18;5.70;;;2.65;;
78889;SDS011;68279;48.964;14.502;2023-08-24T12:14:49;3.45;;;2.53;;
78889;SDS011;68279;48.964;14.502;2023-08-24T12:17:17;5.20;;;2.42;;
78889;SDS011;68279;48.964;14.502;2023-08-24T12:19:57;4.45;;;2.35;;
78889;SDS011;68279;48.964;14.502;2023-08-24T12:22:25;3.72;;;2.70;;
78889;SDS011;68279;48.964;14.502;2023-08-24T12:24:51;3.67;;;2.83;;
78889;SDS011;68279;48.964;14.502;2023-08-24T12:27:17;3.95;;;2.80;;
78889;SDS011;68279;48.964;14.502;2023-08-24T12:32:47;5.85;;;3.38;;
78889;SDS011;68279;48.964;14.502;2023-08-24T12:37:46;4.45;;;2.72;;
78889;SDS011;68279;48.964;14.502;2023-08-24T12:40:12;3.97;;;2.60;;
78889;SDS011;68279;48.964;14.502;2023-08-24T12:42:45;4.38;;;2.88;;
78889;SDS011;68279;48.964;14.502;2023-08-24T12:45:11;4.43;;;2.97;;
78889;SDS011;68279;48.964;14.502;2023-08-24T12:47:39;4.65;;;2.92;;
78889;SDS011;68279;48.964;14.502;2023-08-24T12:50:06;4.60;;;2.95;;
78889;SDS011;68279;48.964;14.502;2023-08-24T12:52:33;5.03;;;2.60;;
78889;SDS011;68279;48.964;14.502;2023-08-24T12:55:01;3.70;;;3.28;;
78889;SDS011;68279;48.964;14.502;2023-08-24T12:57:28;4.07;;;2.65;;
78889;SDS011;68279;48.964;14.502;2023-08-24T12:59:56;6.50;;;2.92;;
78889;SDS011;68279;48.964;14.502;2023-08-24T13:02:28;4.85;;;3.50;;
78889;SDS011;68279;48.964;14.502;2023-08-24T13:04:54;5.40;;;2.53;;
78889;SDS011;68279;48.964;14.502;2023-08-24T13:07:21;4.15;;;3.33;;
78889;SDS011;68279;48.964;14.502;2023-08-24T13:09:46;3.35;;;2.90;;
78889;SDS011;68279;48.964;14.502;2023-08-24T13:12:12;4.68;;;2.95;;
78889;SDS011;68279;48.964;14.502;2023-08-24T13:14:39;5.95;;;2.72;;
78889;SDS011;68279;48.964;14.502;2023-08-24T13:17:12;4.70;;;2.72;;
78889;SDS011;68279;48.964;14.502;2023-08-24T13:19:38;3.90;;;2.95;;
78889;SDS011;68279;48.964;14.502;2023-08-24T13:22:04;3.47;;;2.55;;
78889;SDS011;68279;48.964;14.502;2023-08-24T13:24:30;3.58;;;2.70;;
78889;SDS011;68279;48.964;14.502;2023-08-24T13:26:55;7.20;;;3.50;;
78889;SDS011;68279;48.964;14.502;2023-08-24T13:29:21;4.70;;;2.83;;
78889;SDS011;68279;48.964;14.502;2023-08-24T13:31:52;3.42;;;2.30;;
78889;SDS011;68279;48.964;14.502;2023-08-24T13:34:18;5.68;;;2.65;;
78889;SDS011;68279;48.964;14.502;2023-08-24T13:39:29;6.82;;;2.55;;
78889;SDS011;68279;48.964;14.502;2023-08-24T13:44:28;3.63;;;2.47;;
78889;SDS011;68279;48.964;14.502;2023-08-24T13:46:53;4.72;;;2.95;;
78889;SDS011;68279;48.964;14.502;2023-08-24T13:49:22;4.40;;;2.83;;
78889;SDS011;68279;48.964;14.502;2023-08-24T13:51:47;3.75;;;2.95;;
78889;SDS011;68279;48.964;14.502;2023-08-24T13:54:19;3.70;;;2.75;;
78889;SDS011;68279;48.964;14.502;2023-08-24T13:56:48;3.53;;;2.70;;
78889;SDS011;68279;48.964;14.502;2023-08-24T13:59:19;3.53;;;2.67;;
78889;SDS011;68279;48.964;14.502;2023-08-24T14:01:46;4.40;;;3.08;;
78889;SDS011;68279;48.964;14.502;2023-08-24T14:04:13;5.13;;;2.83;;
78889;SDS011;68279;48.964;14.502;2023-08-24T14:06:38;3.70;;;2.78;;
78889;SDS011;68279;48.964;14.502;2023-08-24T14:09:04;3.70;;;2.72;;
78889;SDS011;68279;48.964;14.502;2023-08-24T14:11:30;3.65;;;2.33;;
78889;SDS011;68279;48.964;14.502;2023-08-24T14:13:57;5.45;;;3.20;;
78889;SDS011;68279;48.964;14.502;2023-08-24T14:16:24;3.33;;;2.42;;
78889;SDS011;68279;48.964;14.502;2023-08-24T14:18:50;3.63;;;2.53;;
78889;SDS011;68279;48.964;14.502;2023-08-24T14:21:17;4.18;;;2.83;;
78889;SDS011;68279;48.964;14.502;2023-08-24T14:23:44;4.57;;;2.65;;
78889;SDS011;68279;48.964;14.502;2023-08-24T14:26:09;4.32;;;2.65;;
78889;SDS011;68279;48.964;14.502;2023-08-24T14:33:42;4.05;;;2.88;;
78889;SDS011;68279;48.964;14.502;2023-08-24T14:36:07;6.20;;;2.65;;
78889;SDS011;68279;48.964;14.502;2023-08-24T14:38:35;4.72;;;2.70;;
78889;SDS011;68279;48.964;14.502;2023-08-24T14:41:03;3.20;;;2.65;;
78889;SDS011;68279;48.964;14.502;2023-08-24T14:43:29;3.70;;;2.80;;
78889;SDS011;68279;48.964;14.502;2023-08-24T14:45:56;4.15;;;2.50;;
78889;SDS011;68279;48.964;14.502;2023-08-24T14:48:23;3.15;;;1.92;;
78889;SDS011;68279;48.964;14.502;2023-08-24T14:50:50;4.00;;;2.40;;
78889;SDS011;68279;48.964;14.502;2023-08-24T14:53:32;3.95;;;2.58;;
78889;SDS011;68279;48.964;14.502;2023-08-24T14:56:00;4.03;;;2.55;;
78889;SDS011;68279;48.964;14.502;2023-08-24T14:58:40;4.63;;;2.60;;
78889;SDS011;68279;48.964;14.502;2023-08-24T15:01:12;3.35;;;2.35;;
78889;SDS011;68279;48.964;14.502;2023-08-24T15:03:43;4.18;;;2.35;;
78889;SDS011;68279;48.964;14.502;2023-08-24T15:06:11;3.58;;;2.58;;
78889;SDS011;68279;48.964;14.502;2023-08-24T15:08:39;4.22;;;2.50;;
78889;SDS011;68279;48.964;14.502;2023-08-24T15:11:06;3.42;;;3.10;;
78889;SDS011;68279;48.964;14.502;2023-08-24T15:16:43;4.00;;;2.30;;
78889;SDS011;68279;48.964;14.502;2023-08-24T15:19:10;3.97;;;2.65;;
78889;SDS011;68279;48.964;14.502;2023-08-24T15:21:38;4.43;;;2.50;;
78889;SDS011;68279;48.964;14.502;2023-08-24T15:24:06;5.10;;;2.85;;